This is the latest recevied weather packets stored in our database for station/object LRCK. If no packets are shown the sender has not sent any weather packets the latest 1 day(s).
| Time | Temp. | Humidity | Pressure | Rain* | Wind** | Luminosity | Snow |
|---|---|---|---|---|---|---|---|
| 1778050097 | 15° C | 63% | 1016 hPa | - | - | - | - |
| 1778049197 | 15° C | 63% | 1016 hPa | - | - | - | - |
| 1778048297 | 13.89° C | 63% | 1016 hPa | - | - | - | - |
| 1778047399 | 13.89° C | 63% | 1016 hPa | - | - | - | - |
| 1778046498 | 12.22° C | 67% | 1016 hPa | - | - | - | - |
| 1778043811 | 12.78° C | 59% | 1016 hPa | - | - | - | - |
| 1778042913 | 12.22° C | 58% | 1015 hPa | - | - | - | - |
| 1778042001 | 12.22° C | 58% | 1015 hPa | - | - | - | - |
| 1778041098 | 8.89° C | 71% | 1015 hPa | - | - | - | - |
| 1778038397 | 7.22° C | 76% | 1015 hPa | - | - | - | - |
| 1778037497 | 6.11° C | 81% | 1015 hPa | - | - | - | - |
| 1778035697 | 5° C | 87% | 1015 hPa | - | - | - | - |
| 1778034797 | 5° C | 87% | 1015 hPa | - | - | - | - |
| 1778033897 | 6.11° C | 81% | 1015 hPa | - | - | - | - |
| 1778032997 | 6.11° C | 81% | 1015 hPa | - | - | - | - |
| 1778032097 | 6.11° C | 81% | 1015 hPa | - | - | - | - |
| 1778031197 | 6.11° C | 81% | 1015 hPa | - | - | - | - |
| 1778030298 | 6.11° C | 81% | 1015 hPa | - | - | - | - |
| 1778029397 | 6.11° C | 81% | 1015 hPa | - | - | - | - |
| 1778028497 | 7.22° C | 81% | 1015 hPa | - | - | - | - |
| 1778025798 | 7.22° C | 81% | 1015 hPa | - | - | - | - |
| 1778023997 | 7.22° C | 81% | 1015 hPa | - | - | - | - |
* Rain since midnight (hover to see other rain measurements)
** Current wind speed in m/s (hover to see current wind gust speed)